Aktualne dane pomiarowe

Uwaga, wersja testowa! Automatyczne pobieranie danych za pomocą narzędzi lub skryptów to umożliwiających jest zabronione.

Dane meteo z obszaru Polski uzyskane na podstawie depesz SYNOP pobieranych co godzinę z NWS. Najedź myszką na symbol przedstawiony w tabeli, aby uzyskać informacje co do jego znaczenia. Prosimy pamiętać, że to testowa wersja strony, która jeszcze nie jest ukończona. Stworzono również jest krótki FAQ dotyczący korzystania z tej podstrony Anomalie temperatury w chwili obecnej odniesione są do okresu referencyjnego 1951-2016. Okres ten będzie później zmieniony na 1981-2010. Kliknij ikonę aby pobrać plik CSV. Kliknij ikonę aby wygenerować mapę synoptyczną dla danego terminu.

Wybierz Datę:    

        

Chojnice (12235)

Dane terminowe dla wybranej stacji. Kliknij datę, aby otrzymać dane z tego terminu dla wszystkich stacji.

TemperaturaZachmurzenieWiatrCiśnienieOpadyPogoda
 Data t td wb tx tn tg rh  Nt Nl Cl Cm Ch ws wd g1 g2 wx mslp ppp ch 24h 12h t ww ww w1 w2  
2019-07-12 23:00:00 13.7 11.7 12.3--- 8822.0wx-wx1wx--11011.1 990.6 0.7---------
2019-07-12 22:00:00 14.8 11.5 12.6--- 8130.0wx-wx1wx---1011.1 990.6 1.0---------
2019-07-12 21:00:00 15.7 12.0 13.2--- 7935.0wxwxwxwx3wx--31010.9 990.5 1.6---wx-w1w2--
2019-07-12 20:00:00 16.6 13.4 14.4--- 8125.0wxwxwx4wx--41010.2 989.9 1.4---wx-w1w2--
2019-07-12 19:00:00 18.9 13.0 15.1--- 6930.0wxwxwx3wx--31009.7 989.6 1.1---wx-w1w2--
2019-07-12 18:00:00 20.6 13.9 16.3 24.9 16.3- 6535.0wxwxwxwx3wx--31008.9 988.9 0.2- 0.012------
2019-07-12 17:00:00 21.7 9.7 14.6--- 4635.0wxwxwxwxwx2wx--21008.4 988.5 -0.4---------
2019-07-12 16:00:00 23.7 8.2 14.9--- 3745.0wxwxwxwx2wx--21008.3 988.5 -0.8---------
2019-07-12 15:00:00 24.5 6.8 14.6--- 3230.0wxwxwxwx2wx--21008.4 988.7 -0.9---------
2019-07-12 14:00:00 24.7 6.0 14.4--- 3030.0wxwxwxwx1wx--11008.6 988.9 -1.1---------
2019-07-12 13:00:00 23.9 4.9 13.6--- 2935.0wxwxwxwx1wx--11009.1 989.3 -0.8---------
2019-07-12 12:00:00 23.4 4.9 13.4--- 3030.0wxwxwxwx1wx--11009.4 989.6 -0.7- 0.06------
2019-07-12 11:00:00 22.4 3.6 12.5--- 2935.0wxwxwxwxwx3wx--31009.9 990.0 -0.5---------
2019-07-12 10:00:00 21.8 6.9 13.5--- 3830.0wx-wxwx1wx--11010.1 990.1 -0.5---------
2019-07-12 09:00:00 20.7 6.0 12.6--- 3830.0wx-wxwx1wx--11010.3 990.3 -0.3---------
2019-07-12 08:00:00 19.6 8.7 13.3--- 4930.0wx-wxwx2wx--21010.6 990.5 -0.1---------
2019-07-12 07:00:00 18.2 11.6 14.0--- 6535.0wx-wxwx1wx--11010.8 990.6 0.1---------
2019-07-12 06:00:00 16.3 13.1 14.1 20.1 9.1 8 8123.0wx-wxwx2wx--21011.0 990.6 0.1- 0.012----- 14.1
2019-07-12 05:00:00 13.4 12.7 12.9--- 9614.0wx-wxwx1wx---1011.2 990.6 0.0---------
2019-07-12 04:00:00 10.4 10.2 10.2--- 998.0wx-wxwx1wx--11011.3 990.5 -0.4---wx---
2019-07-12 03:00:00 9.2 8.8 8.9--- 976.0wx-wxwx1wx--11011.4 990.5 -0.6---wx---
2019-07-12 02:00:00 9.2 8.7 8.8--- 9710.0wx-wxwx2wx--21011.5 990.6 -0.8---wx---
2019-07-12 01:00:00 9.8 9.3 9.4--- 9715.0wx-wxwx1wx--11011.7 990.9 -0.6---------
2019-07-12 00:00:00 10.6 9.8 10.0--- 9519.0wx-1wx--11011.9 991.1 -0.4- 0.06------
2019-07-11 23:00:00 11.3 10.1 10.4--- 9218.0wx-1wx--11012.1 991.4 -0.1---------
2019-07-11 22:00:00 12.2 10.4 11.0--- 8930.0wx-1wx--11012.2 991.5 0.2---------
2019-07-11 21:00:00 13.4 11.0 11.8--- 8540.0wx-wx1wx--11012.1 991.5 0.4---------
2019-07-11 20:00:00 15.3 11.2 12.6--- 7720.0wxwxwxwx1wx--11011.9 991.5 0.5---------
2019-07-11 19:00:00 17.5 10.9 13.4--- 6550.0wxwxwxwx1wx--11011.6 991.3 0.3---------
2019-07-11 18:00:00 20.1 8.8 13.5 21.7 13.7- 4845.0wxwxwxwx2wx--21011.2 991.1 -0.1- 0.012------
2019-07-11 17:00:00 20.4 9.1 13.8--- 4850.0wxwxwxwx3wx--31011.1 991.0 -0.4---------
2019-07-11 16:00:00 21.2 9.5 14.3--- 4730.0wxwxwx2wx--21011.0 991.0 -0.7---------
2019-07-11 15:00:00 21.5 9.2 14.3--- 4528.0wxwxwx3wx--31011.2 991.2 -0.8---------
2019-07-11 14:00:00 20.5 9.2 13.9--- 4830.0wxwxwxwx2wx--21011.5 991.4 -0.6---------
2019-07-11 13:00:00 19.9 9.8 13.9--- 5240.0wxwxwxwx3wx--31011.8 991.7 -0.6---------
2019-07-11 12:00:00 19.6 9.6 13.7--- 5235.0wxwxwxwx3wx--31012.1 992.0 -0.4- 0.06------
2019-07-11 11:00:00 19.5 9.8 13.7--- 5430.0wxwxwx3wx--31012.2 992.0 -0.3---------
2019-07-11 10:00:00 18.6 10.5 13.7--- 5930.0wxwxwx3wx--31012.5 992.3 0.0---------
2019-07-11 09:00:00 17.7 10.9 13.5--- 6428.0wxwxwx3wx--31012.7 992.4 0.1---------
2019-07-11 08:00:00 16.6 10.3 12.7--- 6630.0wxwxwxwx2wx--21012.7 992.3 0.1---------
2019-07-11 07:00:00 15.2 10.5 12.2--- 7435.0wxwxwxwx2wx---1012.8 992.3 0.3---------
2019-07-11 06:00:00 13.7 11.7 12.3 13.7 9.5 8 8830.0wx-wx2wx--21012.9 992.3 0.4 8.4 0.512----- 4.9
2019-07-11 05:00:00 12.3 11.3 11.6--- 9430.0wx-wx2wx--21012.9 992.2 0.2---------
2019-07-11 04:00:00 11.1 10.7 10.8--- 9720.0wx-wx2wx--21012.8 992.0 -0.2---------
2019-07-11 03:00:00 9.6 9.4 9.4--- 9920.0wx-wx2wx--21012.8 991.9 -0.4---------
2019-07-11 02:00:00 9.6 9.4 9.4--- 9915.0wx-wx2wx--21012.9 992.0 -0.4---------
2019-07-11 01:00:00 9.9 9.7 9.7--- 9915.0wx-wxwx2wx--21013.1 992.2 -0.2---------
2019-07-11 00:00:00 10.0 9.6 9.7--- 9715.0wx-wxwx2wx--21013.1 992.3 -0.3- 0.56wx-w1--
1.2 ms

 

Print Friendly, PDF & Email